Time;durP1;ratioP1;P1;durP2;ratioP2;P2;SDS_P1;SDS_P2;PMS_P1;PMS_P2;Temp;Humidity;BMP_temperature;BMP_pressure;BME280_temperature;BME280_humidity;BME280_pressure;Samples;Min_cycle;Max_cycle;Signal;HPM_P1;HPM_P2
2024/01/10 00:01:03;;;;;;;3.90;3.50;;;;;;;-5.61;100.00;61427.78;5083125;28;20232;-80
2024/01/10 00:03:30;;;;;;;4.63;4.10;;;;;;;-5.42;100.00;61445.16;5088025;28;20262;-80
2024/01/10 00:05:57;;;;;;;3.90;3.58;;;;;;;-5.22;100.00;61473.00;5087092;28;20217;-79
2024/01/10 00:08:24;;;;;;;4.60;3.97;;;;;;;-5.12;100.00;61478.22;5078172;28;20197;-79
2024/01/10 00:10:52;;;;;;;6.78;5.03;;;;;;;-4.98;100.00;61497.47;5091286;28;20212;-78
2024/01/10 00:13:19;;;;;;;4.65;4.25;;;;;;;-5.04;100.00;61481.41;5086337;28;20205;-80
2024/01/10 00:15:47;;;;;;;8.05;4.68;;;;;;;-4.98;100.00;61491.97;5086093;28;20221;-80
2024/01/10 00:18:14;;;;;;;3.80;3.20;;;;;;;-5.21;100.00;61476.47;5087326;28;20493;-79
2024/01/10 00:20:41;;;;;;;3.42;3.00;;;;;;;-5.52;100.00;61436.94;5094075;28;20261;-77
2024/01/10 00:23:08;;;;;;;8.13;3.65;;;;;;;-5.55;100.00;61433.88;5108917;28;20227;-79
2024/01/10 00:25:35;;;;;;;3.72;3.42;;;;;;;-5.38;100.00;61454.19;5086427;28;20220;-79
2024/01/10 00:28:02;;;;;;;7.10;3.97;;;;;;;-5.35;100.00;61459.22;5089804;28;20196;-79
2024/01/10 00:30:29;;;;;;;6.15;4.35;;;;;;;-5.17;100.00;61470.63;5085963;28;20217;-79
2024/01/10 00:32:57;;;;;;;5.22;3.53;;;;;;;-5.35;100.00;61454.75;5087291;28;20546;-81
2024/01/10 00:35:24;;;;;;;4.95;4.13;;;;;;;-5.21;100.00;61466.06;5087595;28;20536;-81
2024/01/10 00:37:51;;;;;;;5.75;3.88;;;;;;;-5.09;100.00;61481.28;5084837;28;20254;-80
2024/01/10 00:40:18;;;;;;;4.25;3.70;;;;;;;-5.37;100.00;61450.25;5086321;28;20235;-78
2024/01/10 00:42:45;;;;;;;5.18;3.03;;;;;;;-5.49;100.00;61435.03;5078659;28;20254;-79
2024/01/10 00:45:12;;;;;;;5.07;3.40;;;;;;;-5.33;100.00;61456.81;5087246;28;20251;-81
2024/01/10 00:47:39;;;;;;;4.50;3.35;;;;;;;-5.35;100.00;61451.78;5089316;28;20208;-79
2024/01/10 00:50:08;;;;;;;8.40;3.60;;;;;;;-5.17;100.00;61475.59;5088696;28;20326;-79
2024/01/10 00:52:35;;;;;;;3.80;3.42;;;;;;;-5.13;100.00;61479.69;5102956;28;20250;-79
2024/01/10 00:55:02;;;;;;;4.03;3.25;;;;;;;-5.02;100.00;61485.94;5090615;28;20221;-80
2024/01/10 00:57:29;;;;;;;6.20;3.45;;;;;;;-4.95;100.00;61495.03;5091609;28;20200;-80
2024/01/10 00:59:56;;;;;;;5.18;3.90;;;;;;;-4.87;100.00;61508.16;5089459;28;20241;-79
2024/01/10 01:02:23;;;;;;;4.07;3.35;;;;;;;-5.36;100.00;61456.22;5088920;28;20273;-78
2024/01/10 01:04:50;;;;;;;3.63;2.90;;;;;;;-5.35;100.00;61454.28;5078753;28;20229;-78
2024/01/10 01:07:18;;;;;;;3.95;3.35;;;;;;;-5.30;100.00;61456.88;5093841;28;20201;-79
2024/01/10 01:09:45;;;;;;;3.83;3.08;;;;;;;-5.08;100.00;61489.75;5093207;28;20250;-79
2024/01/10 01:12:12;;;;;;;4.47;3.72;;;;;;;-5.08;100.00;61476.81;5088463;28;20395;-80
2024/01/10 01:14:39;;;;;;;4.85;3.60;;;;;;;-4.95;100.00;61500.00;5090069;28;20533;-81
2024/01/10 01:17:05;;;;;;;6.15;4.13;;;;;;;-4.91;100.00;61502.13;5088805;28;20212;-79
2024/01/10 01:19:32;;;;;;;3.85;3.45;;;;;;;-5.07;100.00;61478.34;5092553;28;20618;-80
2024/01/10 01:21:59;;;;;;;4.65;3.20;;;;;;;-5.03;100.00;61494.84;5087869;28;20609;-79
2024/01/10 01:24:27;;;;;;;5.18;4.13;;;;;;;-4.90;100.00;61498.16;5090802;28;20236;-80
2024/01/10 01:26:54;;;;;;;5.10;3.88;;;;;;;-5.14;100.00;61476.19;5091411;28;20220;-79
2024/01/10 01:29:21;;;;;;;5.93;3.78;;;;;;;-5.05;100.00;61484.84;5094819;28;20302;-79
2024/01/10 01:31:48;;;;;;;7.13;3.65;;;;;;;-5.01;100.00;61486.44;5092419;28;20245;-81
2024/01/10 01:34:15;;;;;;;8.18;4.43;;;;;;;-4.98;100.00;61496.94;5090021;28;20323;-79
2024/01/10 01:36:42;;;;;;;5.07;3.83;;;;;;;-5.37;100.00;61459.66;5082935;28;20209;-81
2024/01/10 01:39:09;;;;;;;4.75;3.78;;;;;;;-5.56;100.00;61430.91;5089758;28;20286;-78
2024/01/10 01:41:37;;;;;;;5.20;4.50;;;;;;;-5.42;100.00;61447.66;5085690;28;20197;-80
2024/01/10 01:44:04;;;;;;;5.20;3.85;;;;;;;-5.23;100.00;61467.00;5088897;28;20211;-78
2024/01/10 01:46:31;;;;;;;4.55;3.90;;;;;;;-5.16;100.00;61473.63;5089966;28;20205;-78
2024/01/10 01:48:58;;;;;;;6.35;3.63;;;;;;;-5.03;100.00;61484.41;5089257;28;20204;-79
2024/01/10 01:51:25;;;;;;;3.78;3.47;;;;;;;-5.02;100.00;61485.94;5088560;28;20269;-81
2024/01/10 01:53:52;;;;;;;5.05;3.75;;;;;;;-5.38;100.00;61449.22;5095614;28;20323;-80
2024/01/10 01:56:19;;;;;;;5.68;4.32;;;;;;;-5.59;100.00;61437.75;5087838;28;20251;-80
2024/01/10 01:58:48;;;;;;;6.88;3.92;;;;;;;-5.57;100.00;61429.38;5090966;28;20200;-78
2024/01/10 02:01:17;;;;;;;3.10;2.80;;;;;;;-5.77;100.00;61411.47;5089996;28;20208;-78
2024/01/10 02:03:43;;;;;;;3.63;3.28;;;;;;;-5.61;100.00;61430.75;5090643;28;20228;-79
2024/01/10 02:06:10;;;;;;;4.00;3.53;;;;;;;-5.46;100.00;61445.53;5090122;28;20238;-78
2024/01/10 02:08:37;;;;;;;3.80;3.40;;;;;;;-5.35;100.00;61451.78;5090136;28;20205;-80
2024/01/10 02:11:04;;;;;;;4.70;3.42;;;;;;;-5.24;100.00;61470.94;5091119;28;20227;-79
2024/01/10 02:13:34;;;;;;;4.38;3.67;;;;;;;-5.19;100.00;61473.03;5091684;28;20210;-79
2024/01/10 02:16:03;;;;;;;4.78;3.83;;;;;;;-5.32;100.00;61454.84;5090417;28;20228;-79
2024/01/10 02:18:30;;;;;;;4.90;4.25;;;;;;;-5.88;100.00;61398.31;5084384;28;20201;-79
2024/01/10 02:20:57;;;;;;;8.13;4.20;;;;;;;-5.83;100.00;61405.38;5087967;28;20282;-78
2024/01/10 02:23:24;;;;;;;6.00;4.45;;;;;;;-5.63;100.00;61433.69;5093160;28;20236;-79
2024/01/10 02:25:53;;;;;;;5.15;4.45;;;;;;;-5.81;100.00;61410.38;5086191;28;20220;-79
2024/01/10 02:28:20;;;;;;;5.32;4.82;;;;;;;-5.92;100.00;61396.72;5088355;28;20208;-79
2024/01/10 02:30:47;;;;;;;7.28;5.28;;;;;;;-5.85;100.00;61403.84;5085087;28;20243;-78
2024/01/10 02:33:14;;;;;;;5.82;4.18;;;;;;;-5.89;100.00;61399.25;5089010;28;20215;-79
2024/01/10 02:35:41;;;;;;;4.00;3.60;;;;;;;-5.89;100.00;61404.22;5081564;28;20236;-79
2024/01/10 02:38:08;;;;;;;5.55;3.83;;;;;;;-6.00;100.00;61386.59;5091815;28;20216;-80
2024/01/10 02:40:35;;;;;;;6.03;5.32;;;;;;;-6.04;100.00;61389.94;5086959;28;20299;-80
2024/01/10 02:43:03;;;;;;;4.93;4.43;;;;;;;-6.03;100.00;61383.56;5090435;28;20236;-79
2024/01/10 02:45:30;;;;;;;5.75;4.55;;;;;;;-5.95;100.00;61391.19;5082590;28;20270;-80
2024/01/10 02:47:57;;;;;;;7.15;4.32;;;;;;;-5.85;100.00;61401.38;5089599;28;20279;-78
2024/01/10 02:50:23;;;;;;;9.60;4.90;;;;;;;-5.75;100.00;61414.03;5088310;28;20284;-77
2024/01/10 02:52:50;;;;;;;6.82;3.75;;;;;;;-5.78;100.00;61412.94;5089494;28;20228;-78
2024/01/10 02:55:17;;;;;;;4.53;4.07;;;;;;;-5.93;100.00;61398.69;5086936;28;20223;-78
2024/01/10 02:57:44;;;;;;;6.50;4.65;;;;;;;-5.97;100.00;61392.13;5086824;28;20220;-79
2024/01/10 03:00:14;;;;;;;8.63;4.28;;;;;;;-5.93;100.00;61398.69;5091794;28;20544;-79
2024/01/10 03:02:40;;;;;;;8.88;4.80;;;;;;;-5.98;100.00;61388.13;5085176;28;20235;-78
2024/01/10 03:05:08;;;;;;;5.38;4.85;;;;;;;-5.97;100.00;61396.59;5089283;28;20233;-80
2024/01/10 03:07:35;;;;;;;4.95;3.78;;;;;;;-5.98;100.00;61388.66;5088488;28;20267;-79
2024/01/10 03:10:03;;;;;;;5.60;4.20;;;;;;;-5.90;100.00;61403.22;5089677;28;20224;-79
2024/01/10 03:12:30;;;;;;;4.95;4.38;;;;;;;-5.90;100.00;61398.75;5094206;28;20196;-79
2024/01/10 03:14:57;;;;;;;7.63;4.72;;;;;;;-5.78;100.00;61405.50;5087786;28;20309;-80
2024/01/10 03:17:26;;;;;;;5.57;5.00;;;;;;;-5.80;100.00;61415.84;5085930;28;20197;-79
2024/01/10 03:19:52;;;;;;;6.38;5.70;;;;;;;-5.72;100.00;61412.13;5089371;28;20221;-78
2024/01/10 03:22:19;;;;;;;6.57;4.80;;;;;;;-5.94;100.00;61397.66;5092758;28;20200;-79
2024/01/10 03:24:46;;;;;;;6.65;5.43;;;;;;;-6.14;100.00;61374.81;5089123;28;20220;-79
2024/01/10 03:27:13;;;;;;;10.73;5.40;;;;;;;-6.06;100.00;61377.50;5088238;28;20200;-79
2024/01/10 03:29:40;;;;;;;7.18;5.80;;;;;;;-5.90;100.00;61398.75;5088341;28;20224;-79
2024/01/10 03:32:07;;;;;;;10.80;6.13;;;;;;;-6.12;100.00;61378.81;5086008;28;20201;-80
2024/01/10 03:34:35;;;;;;;7.28;5.45;;;;;;;-6.07;100.00;61379.47;5087525;28;20213;-79
2024/01/10 03:37:03;;;;;;;8.07;6.38;;;;;;;-6.02;100.00;61387.03;5093230;28;20213;-79
2024/01/10 03:39:30;;;;;;;8.85;6.57;;;;;;;-5.98;100.00;61391.13;5091049;28;20291;-78
2024/01/10 03:41:57;;;;;;;9.70;5.60;;;;;;;-5.92;100.00;61394.75;5085069;28;20205;-78
2024/01/10 03:44:24;;;;;;;8.30;5.28;;;;;;;-5.89;100.00;61396.78;5093810;28;20242;-80
2024/01/10 03:46:51;;;;;;;7.10;5.40;;;;;;;-5.93;100.00;61393.72;5086480;28;20213;-79
2024/01/10 03:49:18;;;;;;;7.00;5.80;;;;;;;-5.95;100.00;61401.59;5088839;28;20266;-80
2024/01/10 03:51:47;;;;;;;8.65;5.28;;;;;;;-5.94;100.00;61397.16;5088470;28;20212;-80
2024/01/10 03:54:14;;;;;;;6.53;5.70;;;;;;;-6.08;100.00;61388.38;5086705;28;20228;-79
2024/01/10 03:56:41;;;;;;;6.88;4.88;;;;;;;-5.88;100.00;61400.28;5089480;28;20216;-80
2024/01/10 03:59:08;;;;;;;6.28;4.47;;;;;;;-5.71;100.00;61417.59;5092312;28;20247;-80
2024/01/10 04:01:35;;;;;;;7.57;4.60;;;;;;;-5.61;100.00;61430.25;5089774;28;20353;-80
2024/01/10 04:04:02;;;;;;;7.18;4.90;;;;;;;-5.74;100.00;61422.47;5088496;28;20238;-80
2024/01/10 04:06:29;;;;;;;9.20;5.25;;;;;;;-5.59;100.00;61430.31;5085023;28;20209;-81
2024/01/10 04:08:57;;;;;;;8.25;5.03;;;;;;;-5.53;100.00;61433.44;5077317;28;20224;-79
2024/01/10 04:11:24;;;;;;;7.65;5.38;;;;;;;-5.38;100.00;61456.16;5083663;28;20250;-79
2024/01/10 04:13:51;;;;;;;5.97;4.53;;;;;;;-5.40;100.00;61452.16;5089260;28;20208;-80
2024/01/10 04:16:18;;;;;;;8.57;3.97;;;;;;;-5.75;100.00;61413.50;5086889;28;20220;-81
2024/01/10 04:18:45;;;;;;;7.15;4.15;;;;;;;-5.72;100.00;61414.59;5087948;28;20268;-80
2024/01/10 04:21:12;;;;;;;6.85;4.15;;;;;;;-5.50;100.00;61441.44;5087395;28;20416;-79
2024/01/10 04:23:39;;;;;;;5.88;3.75;;;;;;;-5.46;100.00;61445.53;5090890;28;20553;-79
2024/01/10 04:26:08;;;;;;;4.25;3.22;;;;;;;-5.48;100.00;61439.03;5089479;28;20565;-79
2024/01/10 04:28:34;;;;;;;4.88;3.60;;;;;;;-5.44;100.00;61447.56;5080644;28;20269;-78
2024/01/10 04:31:01;;;;;;;4.82;4.00;;;;;;;-5.46;100.00;61438.59;5088469;28;20232;-79
2024/01/10 04:33:28;;;;;;;4.13;3.65;;;;;;;-5.46;100.00;61448.53;5088903;28;20220;-80
2024/01/10 04:35:55;;;;;;;6.18;3.97;;;;;;;-5.57;100.00;61429.38;5086671;28;20248;-80
2024/01/10 04:38:25;;;;;;;6.35;4.13;;;;;;;-5.56;100.00;61435.84;5089394;28;20216;-78
2024/01/10 04:40:52;;;;;;;3.88;3.53;;;;;;;-5.65;100.00;61423.69;5081876;28;20371;-79
2024/01/10 04:43:20;;;;;;;6.55;4.40;;;;;;;-5.44;100.00;61448.09;5084128;28;20292;-79
2024/01/10 04:45:47;;;;;;;3.38;2.85;;;;;;;-5.61;100.00;61428.28;5089180;28;20217;-81
2024/01/10 04:48:14;;;;;;;6.20;3.28;;;;;;;-5.42;100.00;61445.16;5078541;28;20280;-79
2024/01/10 04:50:41;;;;;;;9.40;3.30;;;;;;;-5.50;100.00;61438.97;5087310;28;20236;-79
2024/01/10 04:53:08;;;;;;;5.57;3.90;;;;;;;-5.78;100.00;61413.44;5085977;28;20361;-79
2024/01/10 04:55:35;;;;;;;5.47;4.20;;;;;;;-5.63;100.00;61433.69;5082791;28;20212;-79
2024/01/10 04:58:02;;;;;;;5.00;3.92;;;;;;;-5.44;100.00;61445.09;5097784;28;20484;-78
2024/01/10 05:00:31;;;;;;;4.70;3.65;;;;;;;-5.24;100.00;61465.47;5085131;28;20301;-79
2024/01/10 05:02:58;;;;;;;6.60;3.13;;;;;;;-5.16;100.00;61474.13;5086509;28;20226;-79
2024/01/10 05:05:25;;;;;;;5.15;3.67;;;;;;;-5.23;100.00;61464.03;5086582;28;20231;-79
2024/01/10 05:07:52;;;;;;;3.92;3.05;;;;;;;-5.42;100.00;61450.13;5087320;28;20280;-79
2024/01/10 05:10:19;;;;;;;4.47;3.50;;;;;;;-5.35;100.00;61451.78;5084835;28;20228;-78
2024/01/10 05:12:46;;;;;;;5.88;4.00;;;;;;;-5.69;100.00;61415.16;5087215;28;20201;-79
2024/01/10 05:15:13;;;;;;;3.20;2.20;;;;;;;-5.88;100.00;61407.72;5091895;28;20246;-78
2024/01/10 05:17:42;;;;;;;3.97;2.95;;;;;;;-5.90;100.00;61400.72;5086426;28;20470;-80
2024/01/10 05:20:10;;;;;;;3.90;2.42;;;;;;;-6.01;100.00;61393.03;5084483;28;20224;-79
2024/01/10 05:22:37;;;;;;;3.33;2.88;;;;;;;-5.81;100.00;61407.38;5087263;28;20413;-80
2024/01/10 05:25:05;;;;;;;5.85;3.35;;;;;;;-5.66;100.00;61422.69;5093388;28;20236;-79
2024/01/10 05:27:31;;;;;;;4.00;3.38;;;;;;;-5.59;100.00;61430.31;5084042;28;20423;-79
2024/01/10 05:30:00;;;;;;;3.33;2.70;;;;;;;-5.63;100.00;61421.28;5084333;28;20227;-80
2024/01/10 05:32:27;;;;;;;5.30;3.90;;;;;;;-5.72;100.00;61412.13;5085746;28;20226;-79
2024/01/10 05:34:56;;;;;;;4.78;3.60;;;;;;;-5.42;100.00;61450.13;5093180;28;20247;-78
2024/01/10 05:37:23;;;;;;;4.90;3.90;;;;;;;-5.33;100.00;61456.31;5091121;28;20208;-79
2024/01/10 05:39:50;;;;;;;3.97;3.00;;;;;;;-5.23;100.00;61461.53;5088715;28;20224;-78
2024/01/10 05:42:16;;;;;;;3.85;3.08;;;;;;;-5.12;100.00;61478.22;5091267;28;20197;-78
2024/01/10 05:44:43;;;;;;;3.90;3.10;;;;;;;-5.15;100.00;61475.16;5089347;28;20236;-79
2024/01/10 05:47:10;;;;;;;3.03;2.83;;;;;;;-5.12;100.00;61480.69;5087329;28;20202;-77
2024/01/10 05:49:37;;;;;;;4.70;2.70;;;;;;;-5.03;99.85;61487.41;5086401;28;20216;-78
2024/01/10 05:52:06;;;;;;;3.05;2.65;;;;;;;-4.91;99.38;61499.13;5086908;28;20486;-79
2024/01/10 05:54:33;;;;;;;4.07;2.97;;;;;;;-4.97;97.11;61497.97;5089266;28;20216;-79
2024/01/10 05:57:02;;;;;;;3.90;3.20;;;;;;;-4.95;95.92;61492.56;5091368;28;20211;-79
2024/01/10 05:59:30;;;;;;;3.85;2.90;;;;;;;-4.93;94.83;61494.59;5092813;28;20235;-80
2024/01/10 06:01:57;;;;;;;3.97;2.92;;;;;;;-5.13;95.79;61472.25;5087382;28;20193;-78
2024/01/10 06:04:24;;;;;;;3.22;2.92;;;;;;;-5.39;97.09;61450.69;5084604;28;20228;-79
2024/01/10 06:06:51;;;;;;;3.92;3.63;;;;;;;-5.24;97.73;61463.50;5089612;28;20209;-79
2024/01/10 06:09:21;;;;;;;6.28;3.25;;;;;;;-5.28;97.11;61471.31;5080247;28;20267;-78
2024/01/10 06:11:48;;;;;;;7.40;2.85;;;;;;;-5.44;97.40;61440.13;5086082;28;20200;-79
2024/01/10 06:14:16;;;;;;;3.03;2.78;;;;;;;-5.43;97.20;61444.13;5086642;28;20590;-79
2024/01/10 06:16:43;;;;;;;6.22;3.25;;;;;;;-5.44;97.18;61445.59;5090609;28;20264;-77
2024/01/10 06:19:11;;;;;;;4.28;2.80;;;;;;;-5.30;97.39;61456.88;5097333;28;20280;-79
2024/01/10 06:21:38;;;;;;;3.10;2.78;;;;;;;-5.28;97.44;61461.91;5089638;28;20212;-79
2024/01/10 06:24:05;;;;;;;3.45;3.15;;;;;;;-5.22;96.59;61472.47;5088775;28;20251;-78
2024/01/10 06:26:34;;;;;;;4.72;3.47;;;;;;;-5.20;95.04;61472.56;5089577;28;20204;-79
2024/01/10 06:29:01;;;;;;;4.20;3.30;;;;;;;-5.43;96.33;61446.63;5091120;28;20522;-80
2024/01/10 06:31:28;;;;;;;10.77;4.45;;;;;;;-5.20;97.41;61469.56;5090955;28;20205;-78
2024/01/10 06:33:55;;;;;;;6.40;3.83;;;;;;;-4.99;96.69;61486.50;5089694;28;20209;-78
2024/01/10 06:36:22;;;;;;;4.38;3.97;;;;;;;-4.96;96.14;61494.03;5088966;28;20271;-79
2024/01/10 06:38:49;;;;;;;6.72;4.35;;;;;;;-4.93;95.92;61492.13;5090630;28;20208;-80
2024/01/10 06:41:16;;;;;;;6.97;4.35;;;;;;;-5.10;96.86;61482.75;5091694;28;20224;-78
2024/01/10 06:43:45;;;;;;;5.50;4.32;;;;;;;-4.83;96.99;61514.72;5090293;28;20266;-78
2024/01/10 06:46:11;;;;;;;5.57;3.75;;;;;;;-4.98;95.87;61499.41;5090701;28;20250;-78
2024/01/10 06:48:38;;;;;;;4.53;3.95;;;;;;;-5.35;95.89;61454.28;5090923;28;20205;-77
2024/01/10 06:51:06;;;;;;;4.20;3.80;;;;;;;-5.28;100.00;61463.88;5092572;28;20224;-79
2024/01/10 06:53:33;;;;;;;6.25;4.25;;;;;;;-4.81;100.00;61514.78;5089538;28;20208;-78
2024/01/10 06:56:00;;;;;;;6.15;4.10;;;;;;;-4.53;100.00;61540.34;5089453;28;20217;-78
2024/01/10 06:58:27;;;;;;;5.40;3.85;;;;;;;-4.02;100.00;61589.91;5091736;28;20197;-80
2024/01/10 07:00:55;;;;;;;5.68;4.45;;;;;;;-3.80;100.00;61617.34;5089851;28;20228;-78
2024/01/10 07:03:22;;;;;;;6.93;4.28;;;;;;;-3.71;100.00;61623.53;5089440;28;20205;-79
2024/01/10 07:05:49;;;;;;;5.45;4.05;;;;;;;-3.97;99.79;61589.53;5090917;28;20220;-77
2024/01/10 07:08:16;;;;;;;9.45;4.05;;;;;;;-4.68;96.09;61530.03;5090121;28;20205;-79
2024/01/10 07:10:43;;;;;;;5.60;4.15;;;;;;;-4.74;96.76;61523.91;5091223;28;20220;-79
2024/01/10 07:13:10;;;;;;;12.93;3.88;;;;;;;-4.66;98.02;61519.66;5089287;28;20213;-78
2024/01/10 07:15:39;;;;;;;8.43;4.15;;;;;;;-4.52;97.82;61543.34;5090282;28;20285;-78
2024/01/10 07:18:08;;;;;;;6.07;4.07;;;;;;;-4.09;96.97;61579.78;5086933;28;20277;-81
2024/01/10 07:20:35;;;;;;;5.82;3.88;;;;;;;-3.95;93.53;61599.53;5081567;28;20224;-79
2024/01/10 07:23:02;;;;;;;5.03;3.92;;;;;;;-3.94;93.83;61600.56;5089963;28;20268;-78
2024/01/10 07:25:29;;;;;;;5.50;4.05;;;;;;;-3.63;92.71;61629.22;5090142;28;20265;-79
2024/01/10 07:27:56;;;;;;;5.75;4.78;;;;;;;-3.43;90.18;61651.63;5089149;28;20212;-79
2024/01/10 07:30:23;;;;;;;6.30;4.82;;;;;;;-4.19;90.52;61567.06;5090149;28;20587;-79
2024/01/10 07:32:50;;;;;;;7.20;4.75;;;;;;;-4.41;93.57;61550.13;5090081;28;20208;-78
2024/01/10 07:35:20;;;;;;;5.47;4.93;;;;;;;-4.13;94.09;61585.63;5092143;28;20228;-78
2024/01/10 07:37:47;;;;;;;9.45;4.68;;;;;;;-4.20;91.82;61568.53;5089132;28;20216;-80
2024/01/10 07:40:14;;;;;;;8.48;4.68;;;;;;;-4.24;93.98;61569.44;5090161;28;20234;-79
2024/01/10 07:42:41;;;;;;;5.35;4.82;;;;;;;-4.12;93.82;61579.69;5090217;28;20200;-78
2024/01/10 07:45:09;;;;;;;4.35;3.95;;;;;;;-3.98;92.36;61594.00;5088534;28;20240;-79
2024/01/10 07:47:37;;;;;;;10.73;5.43;;;;;;;-3.83;91.83;61611.78;5090198;28;20204;-79
2024/01/10 07:50:06;;;;;;;5.85;4.53;;;;;;;-4.19;91.56;61572.03;5090723;28;20537;-78
2024/01/10 07:52:34;;;;;;;4.95;4.47;;;;;;;-4.19;93.05;61574.53;5088148;28;20197;-81
2024/01/10 07:55:01;;;;;;;9.95;4.65;;;;;;;-4.04;92.06;61585.38;5087905;28;20208;-78
2024/01/10 07:57:28;;;;;;;15.07;5.82;;;;;;;-4.64;90.96;61523.66;5090707;28;20200;-81
2024/01/10 07:59:55;;;;;;;6.78;5.38;;;;;;;-4.65;93.31;61528.13;5087036;28;20280;-80
2024/01/10 08:02:22;;;;;;;10.20;4.93;;;;;;;-4.38;92.12;61553.16;5088604;28;20421;-78
2024/01/10 08:04:49;;;;;;;11.43;5.95;;;;;;;-4.72;89.74;61513.53;5088522;28;20228;-79
2024/01/10 08:07:16;;;;;;;9.00;4.70;;;;;;;-4.64;89.12;61526.66;5089080;28;20205;-78
2024/01/10 08:09:44;;;;;;;9.77;6.32;;;;;;;-4.60;86.65;61530.72;5087194;28;20277;-79
2024/01/10 08:12:11;;;;;;;8.60;5.70;;;;;;;-4.79;87.93;61514.34;5088371;28;20252;-79
2024/01/10 08:14:38;;;;;;;8.13;5.90;;;;;;;-4.59;88.03;61526.78;5090754;28;20220;-79
2024/01/10 08:17:06;;;;;;;7.85;6.13;;;;;;;-4.37;86.41;61551.19;5083850;28;20242;-78
2024/01/10 08:19:33;;;;;;;8.77;5.18;;;;;;;-4.43;87.35;61552.53;5087989;28;20213;-79
2024/01/10 08:22:00;;;;;;;9.10;5.82;;;;;;;-4.73;86.25;61519.97;5088720;28;20512;-80
2024/01/10 08:24:26;;;;;;;9.30;6.55;;;;;;;-4.79;87.92;61516.31;5074275;28;20247;-80
2024/01/10 08:26:55;;;;;;;8.35;6.28;;;;;;;-4.51;89.31;61539.41;5086392;28;20224;-80
2024/01/10 08:29:22;;;;;;;8.18;5.43;;;;;;;-4.16;88.11;61580.59;5087563;28;20372;-81
2024/01/10 08:31:49;;;;;;;9.25;5.78;;;;;;;-4.00;85.18;61591.94;5089949;28;20204;-82
2024/01/10 08:34:18;;;;;;;5.80;4.82;;;;;;;-4.08;83.20;61583.78;5089178;28;20226;-82
2024/01/10 08:36:44;;;;;;;7.13;4.65;;;;;;;-4.14;84.62;61572.19;5093289;28;20217;-82
2024/01/10 08:39:11;;;;;;;6.68;4.60;;;;;;;-4.33;83.44;61560.75;5086979;28;20234;-82
2024/01/10 08:41:44;;;;;;;8.82;5.78;;;;;;;-4.22;86.26;61569.50;5090577;28;20197;-82
2024/01/10 08:44:12;;;;;;;5.65;4.93;;;;;;;-4.09;85.93;61584.75;5089186;28;20258;-82
2024/01/10 08:46:39;;;;;;;8.00;5.07;;;;;;;-3.98;83.35;61593.47;5089413;28;20608;-82
2024/01/10 08:49:06;;;;;;;6.20;4.95;;;;;;;-4.06;84.28;61583.34;5087882;28;20223;-78
2024/01/10 08:51:32;;;;;;;8.30;6.13;;;;;;;-3.85;84.15;61604.75;5086864;28;20205;-78
2024/01/10 08:54:00;;;;;;;8.48;5.45;;;;;;;-3.63;83.57;61632.22;5086146;28;20217;-79
2024/01/10 08:56:27;;;;;;;10.52;5.75;;;;;;;-3.48;82.67;61639.03;5091991;28;20196;-78
2024/01/10 08:58:54;;;;;;;7.90;5.30;;;;;;;-3.50;81.82;61639.50;5087587;28;20204;-78
2024/01/10 09:01:23;;;;;;;8.55;5.82;;;;;;;-3.59;83.40;61631.31;5089935;28;20220;-81
2024/01/10 09:03:50;;;;;;;6.97;5.57;;;;;;;-3.41;83.51;61649.19;5089184;28;20272;-80
2024/01/10 09:06:17;;;;;;;11.98;5.70;;;;;;;-3.59;83.10;61630.81;5088812;28;20236;-79
2024/01/10 09:08:47;;;;;;;8.15;4.75;;;;;;;-3.60;82.52;61637.75;5089196;28;20224;-80
2024/01/10 09:11:14;;;;;;;9.30;5.65;;;;;;;-3.79;83.96;61613.38;5087217;28;20224;-79
2024/01/10 09:13:41;;;;;;;10.23;5.72;;;;;;;-3.74;84.85;61615.50;5090639;28;20204;-77
2024/01/10 09:16:09;;;;;;;6.53;5.25;;;;;;;-3.47;85.75;61637.56;5090533;28;20242;-79
2024/01/10 09:18:38;;;;;;;10.60;6.60;;;;;;;-3.22;86.35;61665.59;5082924;28;20201;-79
2024/01/10 09:21:05;;;;;;;6.28;4.78;;;;;;;-3.33;84.24;61659.84;5086765;28;20235;-79
2024/01/10 09:23:32;;;;;;;10.07;5.75;;;;;;;-3.58;86.13;61634.84;5093347;28;20230;-81
2024/01/10 09:25:59;;;;;;;10.35;5.35;;;;;;;-3.53;86.52;61642.41;5090497;28;20247;-77
2024/01/10 09:28:27;;;;;;;7.47;5.05;;;;;;;-3.50;86.66;61642.47;5091161;28;20258;-80
2024/01/10 09:30:56;;;;;;;6.63;5.25;;;;;;;-3.45;87.54;61647.59;5091175;28;20235;-79
2024/01/10 09:33:23;;;;;;;7.97;5.20;;;;;;;-3.55;88.04;61644.84;5090923;28;20207;-77
2024/01/10 09:35:51;;;;;;;8.55;5.03;;;;;;;-3.53;89.59;61639.41;5092809;28;20248;-79
2024/01/10 09:38:18;;;;;;;8.52;5.10;;;;;;;-3.41;89.36;61651.66;5090425;28;20219;-79
2024/01/10 09:40:45;;;;;;;12.02;5.57;;;;;;;-3.20;88.45;61670.13;5090377;28;20414;-79
2024/01/10 09:43:12;;;;;;;10.80;5.45;;;;;;;-3.27;87.40;61668.47;5089812;28;20211;-79
2024/01/10 09:45:46;;;;;;;13.30;6.70;;;;;;;-3.29;87.27;61661.44;5090272;28;20242;-80
2024/01/10 09:48:13;;;;;;;8.93;6.63;;;;;;;-2.51;90.22;61745.59;5091602;28;20208;-79
2024/01/10 09:50:39;;;;;;;12.27;6.15;;;;;;;-2.11;83.97;61786.50;5091109;28;20224;-79
2024/01/10 09:53:08;;;;;;;22.42;12.07;;;;;;;-1.93;85.70;61799.91;5091564;28;20215;-79
2024/01/10 09:55:35;;;;;;;15.75;6.28;;;;;;;-2.16;79.46;61780.88;5089845;28;20220;-78
2024/01/10 09:58:03;;;;;;;7.50;5.90;;;;;;;-2.10;80.07;61782.03;5089142;28;20216;-80
2024/01/10 10:00:30;;;;;;;7.00;5.70;;;;;;;-1.87;79.67;61815.53;5092487;28;20266;-77
2024/01/10 10:02:57;;;;;;;12.15;6.57;;;;;;;-1.87;78.13;61808.56;5089273;28;20204;-78
2024/01/10 10:05:24;;;;;;;6.30;5.63;;;;;;;-1.83;78.72;61810.13;5088833;28;20252;-78
2024/01/10 10:07:53;;;;;;;12.35;6.05;;;;;;;-1.53;77.95;61845.84;5088858;28;20272;-77
2024/01/10 10:10:21;;;;;;;7.80;5.72;;;;;;;-1.29;75.89;61862.38;5078626;28;20223;-78
2024/01/10 10:12:49;;;;;;;10.07;6.18;;;;;;;-1.38;74.32;61858.69;5089549;28;20209;-78
2024/01/10 10:15:18;;;;;;;11.40;6.68;;;;;;;-1.54;75.34;61844.31;5088238;28;20238;-78
2024/01/10 10:17:48;;;;;;;13.18;7.10;;;;;;;-1.26;75.95;61872.97;5087346;28;20209;-78
2024/01/10 10:20:16;;;;;;;9.55;6.47;;;;;;;-1.20;75.73;61871.59;5076806;28;20228;-77
2024/01/10 10:22:58;;;;;;;11.18;6.82;;;;;;;-0.93;75.12;61904.22;5090393;28;20208;-78
2024/01/10 10:25:28;;;;;;;9.90;6.88;;;;;;;-0.89;72.67;61912.81;5087591;28;20228;-79
2024/01/10 10:27:54;;;;;;;12.63;7.30;;;;;;;-0.94;73.88;61907.69;5087424;28;20205;-78
2024/01/10 10:30:22;;;;;;;16.88;9.23;;;;;;;-1.17;75.44;61879.16;5090090;28;20220;-79
2024/01/10 10:32:49;;;;;;;13.32;7.57;;;;;;;-1.13;77.85;61883.25;5090105;28;20224;-77
2024/01/10 10:35:15;;;;;;;12.45;7.15;;;;;;;-1.25;78.67;61871.47;5089799;28;20225;-77
2024/01/10 10:37:42;;;;;;;11.93;6.53;;;;;;;-1.29;82.95;61865.41;5087252;28;20209;-75
2024/01/10 10:40:11;;;;;;;9.10;6.20;;;;;;;-1.27;81.00;61869.94;5086135;28;20322;-75
2024/01/10 10:42:40;;;;;;;12.85;8.00;;;;;;;-1.83;79.46;61814.63;5086302;28;20247;-76
2024/01/10 10:45:07;;;;;;;10.93;7.60;;;;;;;-1.88;84.08;61802.53;5086288;28;20236;-76
2024/01/10 10:47:37;;;;;;;10.68;7.05;;;;;;;-1.68;85.07;61825.50;5087472;28;20211;-75
2024/01/10 10:50:05;;;;;;;13.70;7.28;;;;;;;-1.52;85.38;61846.84;5089262;28;20221;-76
2024/01/10 10:52:32;;;;;;;10.75;7.13;;;;;;;-1.33;86.16;61860.81;5080139;28;20239;-75
2024/01/10 10:54:59;;;;;;;12.63;8.05;;;;;;;-1.26;82.19;61868.47;5085776;28;20235;-75
2024/01/10 10:57:25;;;;;;;12.80;7.63;;;;;;;-1.30;83.65;61866.88;5086470;28;20279;-75
2024/01/10 10:59:54;;;;;;;16.52;8.05;;;;;;;-1.38;90.81;61858.19;5086592;28;20224;-74
2024/01/10 11:02:23;;;;;;;11.27;6.93;;;;;;;-1.18;97.29;61878.63;5085644;28;20392;-74
2024/01/10 11:04:50;;;;;;;12.02;8.18;;;;;;;-0.96;94.95;61895.66;5085061;28;20287;-74
2024/01/10 11:07:17;;;;;;;14.00;7.68;;;;;;;-1.14;86.60;61887.75;5085894;28;20212;-74
2024/01/10 11:09:44;;;;;;;8.38;6.88;;;;;;;-0.84;100.00;61910.44;5085541;28;20221;-75
2024/01/10 11:12:21;;;;;;;10.50;7.30;;;;;;;-0.70;94.82;61924.75;5090812;28;20224;-73
2024/01/10 11:14:58;;;;;;;10.68;7.68;;;;;;;-0.48;95.18;61945.31;5083877;28;20285;-75
2024/01/10 11:17:35;;;;;;;12.55;8.48;;;;;;;-0.40;88.98;61958.00;5084816;28;20209;-74
2024/01/10 11:20:14;;;;;;;14.27;7.97;;;;;;;-0.60;85.00;61938.00;5084549;28;20220;-74
2024/01/10 11:22:49;;;;;;;13.70;7.88;;;;;;;-0.56;83.81;61939.63;5087643;28;20201;-74
2024/01/10 11:25:17;;;;;;;9.55;7.47;;;;;;;-0.69;82.90;61928.28;5083974;28;20231;-74
2024/01/10 11:27:45;;;;;;;11.38;8.30;;;;;;;-0.58;89.93;61934.56;5084652;28;20254;-72